Kezdőlap
METAR-TAF:

METAR-TAF

Repülőterek :

Ocean megye, New Jersey, Amerikai Egyesült Államok

földrajzi szélesség: 39-55-39N, földrajzi hosszúság: 074-17-33W, magasság: 25 m

Jelenlegi meteorológiai megfigyelések

A jelentés 5 perccel ezelõtt készült, 07:56 UTC
Északi szél 3 kt
Hőmérséklet 13°C
Páratartalom 100%
Légköri nyomás 1023 hPa
Látótávolság: 1.6 km
Borult 200 lábon
Párásság

METAR: KMJX 260756Z AUTO 35003KT 1SM BR OVC002 13/13 A3020 RMK AO2 RAE03 SLP229 P0000 T01330133

Idő: 04:01 (08:01 UTC)


TAF: hiányzik

Meteorológiai megfigyelések és előrejelzések több, mint 4000 repülőtéren (METAR és TAF jelentéseket).

A térképen piros és sárga pontok jelzik az elérhető meteorológiai állomásokat.

Mozgassa az egeret a pont fölött, hogy megjelenjen az állomás neve.

Azután kattintson az időjárási megfigyelések és előrejelzések megtekintéséhez.

A térkép megváltoztatása: kattintson a fekete keresztel jelölt zöld gombra ráközelítéshez, a vonallal jelölt zöld gombra távolításhoz, vagy a zöld nyilakra a szomszédos térképek eléréséhez.


METAR-TAF: